Time;durP1;ratioP1;P1;durP2;ratioP2;P2;SDS_P1;SDS_P2;PMS_P1;PMS_P2;Temp;Humidity;BMP_temperature;BMP_pressure;BME280_temperature;BME280_humidity;BME280_pressure;Samples;Min_cycle;Max_cycle;Signal;HPM_P1;HPM_P2
2022/06/13 00:02:45;;;;;;;5.35;0.90;;;;;;;15.73;78.25;101658.00;6374896;27;20064;-76
2022/06/13 00:05:46;;;;;;;4.18;1.40;;;;;;;15.70;78.48;101660.81;6373468;27;20051;-76
2022/06/13 00:08:48;;;;;;;7.88;1.40;;;;;;;15.65;78.90;101654.09;6373846;27;20678;-77
2022/06/13 00:11:50;;;;;;;2.10;0.93;;;;;;;15.56;79.04;101655.47;6373711;27;20043;-77
2022/06/13 00:14:51;;;;;;;4.13;1.17;;;;;;;15.54;79.77;101659.16;6372598;27;20050;-76
2022/06/13 00:17:53;;;;;;;1.23;0.90;;;;;;;15.47;79.67;101662.16;6372978;27;20043;-75
2022/06/13 00:20:55;;;;;;;1.40;1.10;;;;;;;15.38;81.00;101662.72;6374072;27;20046;-77
2022/06/13 00:23:59;;;;;;;1.73;1.20;;;;;;;15.39;80.66;101660.91;6373745;27;20057;-76
2022/06/13 00:27:01;;;;;;;6.30;1.60;;;;;;;15.33;81.07;101662.13;6374501;27;20051;-77
2022/06/13 00:30:05;;;;;;;6.07;1.20;;;;;;;15.26;81.50;101659.91;6374771;27;20055;-77
2022/06/13 00:33:06;;;;;;;2.50;1.30;;;;;;;15.14;82.14;101662.34;6375674;27;20055;-76
2022/06/13 00:36:08;;;;;;;1.83;1.48;;;;;;;15.16;81.70;101665.75;6373734;27;20051;-77
2022/06/13 00:39:10;;;;;;;3.20;1.10;;;;;;;15.09;81.85;101656.47;6374269;27;20058;-77
2022/06/13 00:42:17;;;;;;;1.55;1.00;;;;;;;15.03;82.11;101659.44;6373556;27;20050;-76
2022/06/13 00:45:22;;;;;;;3.15;1.30;;;;;;;15.06;81.31;101663.72;6373600;27;20051;-75
2022/06/13 00:48:29;;;;;;;4.22;1.15;;;;;;;15.05;81.35;101662.88;6373928;27;20055;-76
2022/06/13 00:51:32;;;;;;;5.28;1.20;;;;;;;15.00;81.99;101666.75;6373500;27;20058;-77
2022/06/13 00:54:38;;;;;;;2.45;1.20;;;;;;;14.96;82.05;101660.75;6373461;27;20047;-76
2022/06/13 00:57:40;;;;;;;4.00;1.85;;;;;;;15.04;81.15;101658.53;6372986;27;20043;-77
2022/06/13 01:00:44;;;;;;;2.35;1.10;;;;;;;15.05;80.51;101654.09;6374158;27;20051;-76
2022/06/13 01:03:46;;;;;;;5.68;1.35;;;;;;;14.90;80.86;101654.03;6372939;27;20043;-75
2022/06/13 01:06:50;;;;;;;5.30;1.65;;;;;;;14.85;81.33;101655.22;6372997;27;20050;-76
2022/06/13 01:13:13;;;;;;;2.92;1.50;;;;;;;14.77;82.44;101653.00;6373350;27;20047;-76
2022/06/13 01:16:27;;;;;;;3.55;1.48;;;;;;;14.78;82.90;101643.28;6372697;27;20091;-77
2022/06/13 01:19:58;;;;;;;2.95;1.45;;;;;;;14.74;83.35;101636.44;6373046;27;20055;-77
2022/06/13 01:23:27;;;;;;;2.72;1.40;;;;;;;14.66;85.41;101648.31;6373148;27;20039;-76
2022/06/13 01:26:52;;;;;;;1.40;1.10;;;;;;;14.58;86.35;101647.91;6372624;27;20089;-77
2022/06/13 01:29:59;;;;;;;6.80;2.00;;;;;;;14.60;87.30;101650.44;6373668;27;20054;-76
2022/06/13 01:33:13;;;;;;;2.40;1.10;;;;;;;14.57;87.26;101645.31;6372817;27;20047;-77
2022/06/13 01:36:31;;;;;;;3.90;1.35;;;;;;;14.65;86.54;101643.13;6371901;27;20051;-76
2022/06/13 01:39:45;;;;;;;2.60;1.80;;;;;;;14.61;86.62;101634.47;6372763;27;20051;-76
2022/06/13 01:43:08;;;;;;;5.00;1.48;;;;;;;14.60;86.26;101635.44;6372686;27;20308;-76
2022/06/13 01:46:14;;;;;;;4.82;1.83;;;;;;;14.60;85.96;101632.78;6372241;27;20521;-76
2022/06/13 01:49:27;;;;;;;6.97;1.60;;;;;;;14.49;86.38;101632.53;6372552;27;20051;-76
2022/06/13 01:52:37;;;;;;;3.47;1.40;;;;;;;14.42;87.26;101631.13;6372266;27;20047;-75
2022/06/13 01:55:44;;;;;;;5.80;1.77;;;;;;;14.45;86.58;101630.97;6372011;27;20054;-75
2022/06/13 01:58:51;;;;;;;6.95;1.92;;;;;;;14.42;86.32;101628.50;6372334;27;20057;-76
2022/06/13 02:02:00;;;;;;;5.95;2.10;;;;;;;14.31;87.48;101637.03;6373082;27;20060;-76
2022/06/13 02:05:09;;;;;;;2.43;1.33;;;;;;;14.17;88.34;101639.53;6369021;27;20051;-76
2022/06/13 02:08:15;;;;;;;2.88;1.50;;;;;;;14.11;89.36;101642.53;6372863;27;20054;-76
2022/06/13 02:11:23;;;;;;;4.70;1.65;;;;;;;14.10;89.05;101635.53;6371881;28;20070;-76
2022/06/13 02:14:36;;;;;;;5.20;1.60;;;;;;;14.09;88.85;101628.56;6371957;28;20123;-76
2022/06/13 02:17:45;;;;;;;6.55;1.90;;;;;;;14.01;89.25;101628.94;6371765;28;20047;-75
2022/06/13 02:20:54;;;;;;;6.87;1.70;;;;;;;13.92;90.24;101624.16;6371594;28;20421;-76
2022/06/13 02:24:00;;;;;;;4.93;1.90;;;;;;;13.84;90.35;101618.41;6371658;28;20043;-75
2022/06/13 02:27:02;;;;;;;8.85;2.03;;;;;;;13.71;90.88;101626.13;6372252;28;20043;-76
2022/06/13 02:30:07;;;;;;;4.22;1.75;;;;;;;13.63;91.49;101613.34;6371648;28;20047;-76
2022/06/13 02:33:13;;;;;;;6.43;2.50;;;;;;;13.61;92.39;101614.34;6397735;27;20047;-76
2022/06/13 02:36:21;;;;;;;11.65;1.90;;;;;;;13.52;91.89;101613.03;6397388;27;20066;-76
2022/06/13 02:39:28;;;;;;;4.72;1.60;;;;;;;13.53;92.69;101608.59;6389811;27;20545;-76
2022/06/13 02:42:36;;;;;;;2.00;1.40;;;;;;;13.52;92.81;101607.75;6371225;28;20050;-76
2022/06/13 02:45:44;;;;;;;2.65;1.60;;;;;;;13.53;93.28;101598.88;6371488;28;20052;-76
2022/06/13 02:48:52;;;;;;;4.55;1.50;;;;;;;13.45;93.16;101598.47;6373259;27;20043;-76
2022/06/13 02:52:01;;;;;;;5.65;2.58;;;;;;;13.48;93.60;101600.06;6376340;27;20051;-75
2022/06/13 02:55:06;;;;;;;6.57;1.60;;;;;;;13.47;93.27;101601.84;6376275;27;20050;-76
2022/06/13 02:58:18;;;;;;;4.80;1.90;;;;;;;13.38;93.52;101604.97;6376713;27;20047;-75
2022/06/13 03:01:25;;;;;;;6.93;1.73;;;;;;;13.41;92.83;101610.09;6377353;27;20047;-77
2022/06/13 03:04:34;;;;;;;5.03;1.65;;;;;;;13.42;93.50;101623.22;6376062;27;20043;-76
2022/06/13 03:07:42;;;;;;;7.20;2.28;;;;;;;13.51;92.03;101628.97;6376496;27;20054;-74
2022/06/13 03:10:50;;;;;;;9.73;2.45;;;;;;;13.57;91.69;101624.22;6376027;27;20046;-75
2022/06/13 03:14:03;;;;;;;3.28;1.80;;;;;;;13.62;91.31;101616.91;6375878;27;20490;-76
2022/06/13 03:17:10;;;;;;;8.82;2.13;;;;;;;13.60;91.70;101624.06;6376572;27;20048;-76
2022/06/13 03:20:17;;;;;;;3.75;1.63;;;;;;;13.59;92.28;101632.06;6375492;27;20574;-75
2022/06/13 03:23:24;;;;;;;7.07;2.17;;;;;;;13.58;92.40;101640.91;6375877;27;20070;-76
2022/06/13 03:26:31;;;;;;;5.95;2.25;;;;;;;13.58;91.82;101646.19;6375537;27;20055;-75
2022/06/13 03:29:37;;;;;;;8.07;2.38;;;;;;;13.58;92.27;101633.88;6376034;27;20047;-76
2022/06/13 03:32:44;;;;;;;7.28;2.10;;;;;;;13.57;92.92;101628.63;6376515;27;20058;-76
2022/06/13 03:35:49;;;;;;;4.03;1.85;;;;;;;13.62;93.27;101634.53;6375403;27;20047;-76
2022/06/13 03:39:00;;;;;;;3.10;1.73;;;;;;;13.65;93.09;101637.03;6375444;27;20509;-76
2022/06/13 03:42:07;;;;;;;9.90;1.95;;;;;;;13.64;93.69;101625.63;6375255;27;20058;-76
2022/06/13 03:45:16;;;;;;;4.82;1.83;;;;;;;13.64;94.09;101606.28;6374507;27;20043;-76
2022/06/13 03:48:24;;;;;;;3.60;1.63;;;;;;;13.60;94.07;101620.56;6375246;27;20047;-76
2022/06/13 03:51:27;;;;;;;6.45;1.90;;;;;;;13.53;94.71;101620.00;6374172;27;20043;-76
2022/06/13 03:54:37;;;;;;;4.45;1.63;;;;;;;13.53;95.53;101627.09;6373539;27;20042;-75
2022/06/13 03:57:46;;;;;;;6.22;2.10;;;;;;;13.55;95.56;101617.31;6373732;27;20410;-76
2022/06/13 04:00:55;;;;;;;5.75;2.17;;;;;;;13.59;94.87;101627.66;6371269;27;20049;-76
2022/06/13 04:04:00;;;;;;;6.93;1.63;;;;;;;13.68;93.95;101640.38;6372826;27;20046;-76
2022/06/13 04:07:02;;;;;;;5.57;1.80;;;;;;;13.63;93.73;101634.47;6373217;27;20391;-75
2022/06/13 04:10:09;;;;;;;2.63;1.42;;;;;;;13.70;93.37;101651.69;6372712;27;20043;-76
2022/06/13 04:13:25;;;;;;;2.97;1.70;;;;;;;13.76;92.77;101649.66;6371432;27;20054;-76
2022/06/13 04:16:38;;;;;;;5.50;2.03;;;;;;;13.80;92.36;101648.56;6370054;27;20043;-76
2022/06/13 04:19:51;;;;;;;9.57;2.10;;;;;;;13.82;92.65;101639.66;6372870;27;20042;-75
2022/06/13 04:23:00;;;;;;;4.10;1.85;;;;;;;13.84;92.89;101645.69;6371474;27;20051;-76
2022/06/13 04:26:10;;;;;;;3.00;1.58;;;;;;;13.88;92.99;101634.03;6372475;27;20044;-75
2022/06/13 04:29:20;;;;;;;1.83;1.35;;;;;;;13.88;92.45;101631.38;6372755;27;20047;-75
2022/06/13 04:32:26;;;;;;;5.88;2.10;;;;;;;13.88;92.34;101635.81;6374663;27;20054;-76
2022/06/13 04:35:30;;;;;;;3.90;1.65;;;;;;;13.83;92.05;101629.94;6373254;27;20058;-76
2022/06/13 04:38:33;;;;;;;6.90;2.05;;;;;;;13.78;92.72;101627.53;6374157;27;20050;-77
2022/06/13 04:41:39;;;;;;;8.95;2.47;;;;;;;13.81;93.13;101632.66;6373908;27;20054;-76
2022/06/13 04:44:43;;;;;;;5.45;2.03;;;;;;;13.84;92.97;101626.34;6373471;27;20444;-76
2022/06/13 04:47:45;;;;;;;4.47;1.77;;;;;;;13.86;92.86;101621.84;6373753;27;20410;-76
2022/06/13 04:50:50;;;;;;;9.90;2.33;;;;;;;13.86;92.75;101620.06;6373544;27;20051;-75
2022/06/13 04:53:56;;;;;;;4.38;2.03;;;;;;;13.88;93.66;101625.25;6373720;27;20047;-77
2022/06/13 04:56:59;;;;;;;4.05;1.90;;;;;;;13.93;93.99;101623.22;6373858;27;20059;-76
2022/06/13 05:00:04;;;;;;;7.32;2.17;;;;;;;14.02;93.48;101628.00;6373065;27;20047;-76
2022/06/13 05:03:18;;;;;;;5.18;2.05;;;;;;;14.03;93.80;101629.72;6374791;27;20054;-76
2022/06/13 05:06:30;;;;;;;3.75;2.08;;;;;;;14.10;94.48;101633.75;6372876;27;20096;-76
2022/06/13 05:09:37;;;;;;;13.70;2.80;;;;;;;14.15;94.03;101636.13;6381469;27;20126;-76
2022/06/13 05:12:42;;;;;;;2.72;2.03;;;;;;;14.15;94.15;101634.34;6374740;27;20047;-75
2022/06/13 05:15:53;;;;;;;4.07;2.00;;;;;;;14.08;95.05;101638.28;6373094;27;20043;-75
2022/06/13 05:19:07;;;;;;;5.78;2.00;;;;;;;14.18;95.33;101638.63;6373131;27;20188;-76
2022/06/13 05:22:19;;;;;;;4.25;1.60;;;;;;;14.21;95.28;101639.28;6372965;27;20050;-76
2022/06/13 05:25:33;;;;;;;7.03;2.40;;;;;;;14.12;96.21;101638.94;6372471;27;20039;-75
2022/06/13 05:28:37;;;;;;;5.43;2.13;;;;;;;14.08;96.87;101640.91;6373007;27;20043;-75
2022/06/13 05:31:39;;;;;;;4.18;1.98;;;;;;;14.09;98.13;101644.41;6373686;27;20050;-77
2022/06/13 05:34:42;;;;;;;10.52;2.70;;;;;;;14.19;98.24;101646.47;6372605;27;20062;-75
2022/06/13 05:37:44;;;;;;;5.93;1.98;;;;;;;14.26;96.73;101648.75;6372765;27;20069;-75
2022/06/13 05:40:46;;;;;;;8.07;2.38;;;;;;;14.29;96.44;101643.31;6372462;27;20513;-74
2022/06/13 05:43:48;;;;;;;9.98;2.78;;;;;;;14.37;95.57;101651.69;6372283;27;20043;-74
2022/06/13 05:46:50;;;;;;;4.68;2.17;;;;;;;14.32;95.27;101653.75;6372499;27;20051;-75
2022/06/13 05:49:51;;;;;;;7.68;2.53;;;;;;;14.35;95.63;101657.06;6372009;27;20069;-75
2022/06/13 05:52:53;;;;;;;10.68;2.70;;;;;;;14.37;95.83;101655.19;6372322;27;20131;-75
2022/06/13 05:55:57;;;;;;;7.75;2.53;;;;;;;14.44;95.31;101648.63;6372143;27;20367;-74
2022/06/13 05:59:00;;;;;;;2.35;1.63;;;;;;;14.56;94.57;101655.06;6372073;27;20430;-76
2022/06/13 06:02:01;;;;;;;3.97;1.77;;;;;;;14.57;93.83;101646.19;6373223;27;20043;-75
2022/06/13 06:05:02;;;;;;;4.15;2.28;;;;;;;14.69;92.61;101650.78;6371720;27;20058;-75
2022/06/13 06:08:04;;;;;;;4.60;1.80;;;;;;;14.68;92.65;101657.03;6372549;27;20054;-75
2022/06/13 06:11:05;;;;;;;7.32;2.03;;;;;;;14.69;93.17;101656.09;6371738;28;20058;-75
2022/06/13 06:14:08;;;;;;;4.07;1.90;;;;;;;14.76;93.34;101661.03;6371969;28;20047;-76
2022/06/13 06:17:09;;;;;;;7.55;1.92;;;;;;;14.88;91.58;101660.34;6372200;28;20406;-75
2022/06/13 06:20:17;;;;;;;3.13;1.50;;;;;;;14.96;91.39;101663.41;6371554;28;20055;-76
2022/06/13 06:23:18;;;;;;;6.03;1.88;;;;;;;15.04;91.81;101661.19;6374496;27;20434;-75
2022/06/13 06:26:23;;;;;;;3.75;1.60;;;;;;;15.18;88.83;101663.03;6376830;27;20493;-75
2022/06/13 06:29:26;;;;;;;4.70;2.15;;;;;;;15.21;86.92;101662.84;6377476;27;20043;-76
2022/06/13 06:32:27;;;;;;;2.92;1.30;;;;;;;15.36;86.23;101656.66;6378264;27;20047;-75
2022/06/13 06:35:30;;;;;;;6.93;1.55;;;;;;;15.56;84.61;101659.91;6376880;27;20044;-75
2022/06/13 06:38:31;;;;;;;5.78;1.77;;;;;;;15.71;83.24;101659.00;6376973;27;20055;-75
2022/06/13 06:41:33;;;;;;;7.05;2.17;;;;;;;15.77;83.87;101663.97;6376817;27;20053;-77
2022/06/13 06:44:36;;;;;;;3.83;1.58;;;;;;;15.83;82.99;101668.03;6376472;27;20051;-76
2022/06/13 06:47:39;;;;;;;3.75;1.88;;;;;;;15.66;83.83;101664.59;6376865;27;20063;-77
2022/06/13 06:50:41;;;;;;;5.70;2.10;;;;;;;15.78;83.36;101672.78;6376468;27;20043;-77
2022/06/13 07:00:22;;;;;;;6.85;1.80;;;;;;;15.76;83.69;101659.63;6376402;27;20050;-76
2022/06/13 07:03:23;;;;;;;4.50;2.00;;;;;;;15.89;83.65;101657.91;6402070;27;20046;-77
2022/06/13 07:06:24;;;;;;;6.10;1.80;;;;;;;15.88;83.96;101663.31;6401791;27;20054;-76
2022/06/13 07:09:26;;;;;;;2.22;1.52;;;;;;;15.94;81.57;101655.84;6401892;27;20397;-77
2022/06/13 07:12:27;;;;;;;7.05;1.88;;;;;;;15.93;81.34;101659.41;6401694;27;20050;-76
2022/06/13 07:15:30;;;;;;;4.07;1.45;;;;;;;15.98;82.56;101657.34;6401475;27;20394;-77
2022/06/13 07:18:31;;;;;;;4.72;1.73;;;;;;;16.00;80.18;101665.22;6401542;27;20047;-76
2022/06/13 07:21:33;;;;;;;9.80;2.50;;;;;;;15.96;81.14;101674.31;6401612;27;20043;-76
2022/06/13 07:24:34;;;;;;;6.25;2.22;;;;;;;15.94;78.67;101671.75;6401184;27;20066;-77
2022/06/13 07:27:36;;;;;;;6.03;2.08;;;;;;;15.91;79.19;101663.97;6401812;27;20053;-75
2022/06/13 07:30:39;;;;;;;12.43;2.97;;;;;;;15.93;78.15;101667.38;6399201;27;20053;-73
2022/06/13 07:33:40;;;;;;;2.53;1.70;;;;;;;15.95;77.71;101675.25;6400878;27;20042;-73
2022/06/13 07:36:42;;;;;;;2.35;1.27;;;;;;;16.02;76.62;101673.06;6400725;27;20485;-74
2022/06/13 07:39:44;;;;;;;4.85;1.30;;;;;;;15.96;75.85;101661.91;6400939;27;20050;-73
2022/06/13 07:43:02;;;;;;;2.30;1.48;;;;;;;16.08;74.98;101662.94;6400585;27;20058;-73
2022/06/13 07:46:06;;;;;;;3.70;1.10;;;;;;;16.24;74.05;101665.50;6400534;27;20043;-73
2022/06/13 07:49:08;;;;;;;7.32;2.17;;;;;;;16.29;74.85;101666.06;6400827;27;20046;-74
2022/06/13 07:52:10;;;;;;;7.72;1.70;;;;;;;16.43;74.58;101662.53;6400399;27;20487;-74
2022/06/13 07:55:11;;;;;;;3.28;1.00;;;;;;;16.44;70.18;101672.19;6400396;27;20050;-73
2022/06/13 07:58:17;;;;;;;6.05;1.52;;;;;;;16.41;68.19;101667.94;6400651;27;20055;-74
2022/06/13 08:01:20;;;;;;;3.53;1.63;;;;;;;16.42;67.19;101659.03;6389097;27;20462;-75
2022/06/13 08:04:21;;;;;;;4.35;1.58;;;;;;;16.49;67.69;101670.97;6374464;27;20050;-73
2022/06/13 08:07:24;;;;;;;3.45;1.20;;;;;;;16.59;64.76;101654.47;6374913;27;20047;-74
2022/06/13 08:10:25;;;;;;;4.97;1.35;;;;;;;16.56;64.60;101662.59;6373706;27;20046;-74
2022/06/13 08:13:28;;;;;;;2.70;1.00;;;;;;;16.62;64.56;101673.69;6374667;27;20122;-73
2022/06/13 08:16:30;;;;;;;5.18;1.27;;;;;;;16.58;64.34;101669.53;6373972;27;20490;-74
2022/06/13 08:19:32;;;;;;;1.88;1.05;;;;;;;16.68;60.12;101665.34;6374432;27;20049;-73
2022/06/13 08:22:33;;;;;;;4.22;1.55;;;;;;;16.75;61.60;101660.50;6373126;27;20047;-73
2022/06/13 08:25:36;;;;;;;4.38;1.73;;;;;;;16.75;61.61;101660.50;6372351;27;20039;-72
2022/06/13 08:28:38;;;;;;;3.53;1.02;;;;;;;16.80;62.64;101660.19;6370537;27;20126;-77
2022/06/13 08:31:40;;;;;;;3.55;1.00;;;;;;;16.89;59.75;101664.91;6374983;27;20394;-75
2022/06/13 08:34:42;;;;;;;2.47;1.05;;;;;;;16.83;58.54;101667.97;6369556;27;20067;-78
2022/06/13 08:37:43;;;;;;;1.75;0.93;;;;;;;16.69;58.86;101675.00;6373842;27;20051;-74
2022/06/13 08:40:53;;;;;;;3.33;1.52;;;;;;;16.64;59.71;101660.31;6373798;27;20054;-77
2022/06/13 08:44:12;;;;;;;4.10;1.30;;;;;;;16.68;61.16;101668.00;6373439;27;20047;-74
2022/06/13 08:47:24;;;;;;;2.13;0.82;;;;;;;16.87;61.36;101666.84;6373782;27;20047;-73
2022/06/13 08:50:37;;;;;;;6.47;1.23;;;;;;;16.95;60.48;101661.88;6373529;27;20055;-74
2022/06/13 08:53:48;;;;;;;1.30;0.57;;;;;;;17.01;59.93;101647.34;6373987;27;20046;-73
2022/06/13 08:56:51;;;;;;;1.90;0.90;;;;;;;17.12;58.32;101653.66;6373860;27;20630;-73
2022/06/13 08:59:56;;;;;;;4.32;1.10;;;;;;;17.30;56.27;101654.19;6372726;27;20498;-73
2022/06/13 09:03:06;;;;;;;4.32;1.33;;;;;;;17.39;55.43;101648.28;6375103;27;20050;-73
2022/06/13 09:06:14;;;;;;;0.77;0.75;;;;;;;17.47;51.81;101677.84;6372720;27;20380;-77
2022/06/13 09:09:21;;;;;;;1.70;0.65;;;;;;;17.72;52.43;101650.44;6373822;27;20054;-76
2022/06/13 09:12:29;;;;;;;1.35;0.70;;;;;;;17.72;53.32;101655.78;6372931;27;20047;-73
2022/06/13 09:15:34;;;;;;;2.92;1.05;;;;;;;17.81;54.13;101666.78;6372883;27;20066;-76
2022/06/13 09:18:45;;;;;;;1.42;0.80;;;;;;;17.91;52.51;101695.28;6373055;27;20043;-73
2022/06/13 09:21:53;;;;;;;1.60;0.95;;;;;;;17.54;56.62;101712.84;6373151;27;20129;-75
2022/06/13 09:25:05;;;;;;;0.30;0.30;;;;;;;16.46;60.38;101723.38;6372799;27;20047;-76
2022/06/13 09:28:12;;;;;;;1.05;0.50;;;;;;;15.70;65.15;101719.13;6373021;27;20047;-74
2022/06/13 09:31:20;;;;;;;0.35;0.35;;;;;;;15.23;68.26;101717.44;6373835;27;20502;-76
2022/06/13 09:34:31;;;;;;;0.50;0.35;;;;;;;15.14;71.30;101714.44;6372220;27;20050;-75
2022/06/13 09:37:39;;;;;;;0.85;0.45;;;;;;;14.89;72.32;101723.75;6373027;27;20418;-76
2022/06/13 09:40:49;;;;;;;1.38;0.60;;;;;;;14.74;74.67;101724.63;6372374;27;20051;-75
2022/06/13 09:44:02;;;;;;;0.80;0.60;;;;;;;14.82;76.32;101732.16;6372149;27;20055;-75
2022/06/13 09:47:12;;;;;;;0.55;0.43;;;;;;;14.94;74.40;101713.78;6372644;27;20052;-75
2022/06/13 09:50:24;;;;;;;0.57;0.38;;;;;;;15.04;73.33;101723.88;6371915;27;20047;-75
2022/06/13 09:53:33;;;;;;;1.88;0.57;;;;;;;15.09;72.56;101719.16;6372515;27;20043;-75
2022/06/13 09:56:39;;;;;;;;;;;;;;;15.27;70.88;101720.75;6372202;27;20169;-75
2022/06/13 10:00:00;;;;;;;2.10;0.55;;;;;;;15.48;69.52;101721.28;6371576;27;19927;-74
2022/06/13 10:03:08;;;;;;;2.85;0.88;;;;;;;15.61;68.54;101713.50;6346742;28;20494;-75
2022/06/13 10:06:22;;;;;;;1.00;0.50;;;;;;;15.82;69.31;101711.41;6346255;28;20407;-75
2022/06/13 10:09:36;;;;;;;3.55;0.70;;;;;;;16.19;70.14;101705.56;6346813;28;20055;-75
2022/06/13 10:12:54;;;;;;;0.57;0.57;;;;;;;16.42;67.84;101703.28;6346854;28;20659;-77
2022/06/13 10:16:08;;;;;;;3.88;1.73;;;;;;;16.58;68.73;101695.19;6346248;28;20134;-75
2022/06/13 10:19:18;;;;;;;1.00;0.75;;;;;;;16.90;64.77;101696.69;6354243;27;20058;-75
2022/06/13 10:22:36;;;;;;;3.10;0.85;;;;;;;17.13;67.00;101689.03;6372192;28;20054;-76
2022/06/13 10:25:52;;;;;;;2.15;1.15;;;;;;;17.32;66.22;101681.53;6371523;28;20051;-73
2022/06/13 10:29:17;;;;;;;1.05;0.77;;;;;;;17.29;68.71;101684.38;6371818;28;20103;-74
2022/06/13 10:32:37;;;;;;;2.92;0.75;;;;;;;17.43;66.10;101672.84;6371627;28;20051;-74
2022/06/13 10:35:48;;;;;;;1.13;0.93;;;;;;;17.61;67.33;101689.34;6371387;28;20050;-73
2022/06/13 10:38:58;;;;;;;3.28;0.70;;;;;;;17.31;73.59;101717.03;6371887;28;20410;-73
2022/06/13 10:42:05;;;;;;;2.17;0.85;;;;;;;16.23;88.96;101756.63;6372820;28;20090;-78
2022/06/13 10:45:10;;;;;;;4.40;0.90;;;;;;;14.80;100.00;101753.38;6373850;28;20050;-76
2022/06/13 10:48:17;;;;;;;1.00;0.77;;;;;;;14.11;100.00;101756.19;6372382;28;20051;-76
2022/06/13 10:51:19;;;;;;;0.60;0.60;;;;;;;13.90;100.00;101752.88;6372725;27;20054;-76
2022/06/13 10:54:26;;;;;;;0.88;0.88;;;;;;;13.57;100.00;101744.84;6371146;28;20482;-76
2022/06/13 10:57:31;;;;;;;0.60;0.57;;;;;;;13.96;100.00;101758.69;6371511;28;20070;-76
2022/06/13 11:00:32;;;;;;;1.27;0.90;;;;;;;14.16;100.00;101754.16;6371432;28;20051;-76
2022/06/13 11:03:34;;;;;;;1.30;0.60;;;;;;;14.39;100.00;101750.28;6371496;28;20517;-76
2022/06/13 11:06:42;;;;;;;0.50;0.38;;;;;;;14.51;100.00;101754.97;6371087;28;20039;-75
2022/06/13 11:09:47;;;;;;;1.98;0.50;;;;;;;14.65;100.00;101760.38;6372594;27;20050;-75
2022/06/13 11:12:51;;;;;;;0.77;0.40;;;;;;;14.76;96.51;101748.34;6376234;27;20047;-75
2022/06/13 11:22:40;;;;;;;0.82;0.40;;;;;;;15.11;90.31;101741.94;6375899;27;20055;-75
2022/06/13 11:25:43;;;;;;;0.60;0.35;;;;;;;15.10;88.64;101742.88;6376529;27;20470;-75
2022/06/13 11:28:44;;;;;;;0.30;0.30;;;;;;;15.07;90.71;101750.16;6375711;27;20043;-74
2022/06/13 11:31:49;;;;;;;0.73;0.30;;;;;;;15.31;82.32;101738.19;6375239;27;20151;-74
2022/06/13 11:34:50;;;;;;;3.03;0.40;;;;;;;15.37;77.35;101745.75;6375598;27;20129;-76
2022/06/13 11:37:53;;;;;;;0.63;0.40;;;;;;;15.57;72.03;101739.31;6376142;27;20054;-77
2022/06/13 11:41:18;;;;;;;0.43;0.30;;;;;;;15.85;76.79;101753.59;6375831;27;20054;-77
2022/06/13 11:44:22;;;;;;;2.95;0.30;;;;;;;16.62;69.95;101750.66;6371017;27;20422;-76
2022/06/13 11:47:24;;;;;;;0.73;0.22;;;;;;;17.15;64.32;101741.09;6375629;27;20047;-77
2022/06/13 11:50:28;;;;;;;0.52;0.52;;;;;;;17.72;62.80;101737.34;6375892;27;20058;-73
2022/06/13 11:53:39;;;;;;;3.72;0.40;;;;;;;17.78;60.93;101728.97;6375245;27;20051;-76
2022/06/13 11:56:42;;;;;;;0.25;0.25;;;;;;;17.48;60.82;101745.13;6374662;27;20074;-76
2022/06/13 11:59:44;;;;;;;0.20;0.20;;;;;;;17.42;62.91;101740.22;6392354;27;20046;-74
2022/06/13 12:02:54;;;;;;;0.30;0.30;;;;;;;17.25;63.69;101744.84;6401005;27;20043;-74
2022/06/13 12:06:00;;;;;;;1.00;0.30;;;;;;;17.20;63.72;101751.41;6400092;27;20039;-73
2022/06/13 12:09:05;;;;;;;0.22;0.22;;;;;;;17.02;64.00;101747.28;6400754;27;20053;-73
2022/06/13 12:12:10;;;;;;;2.15;0.40;;;;;;;16.99;65.90;101748.38;6399966;27;20046;-74
2022/06/13 12:15:14;;;;;;;2.15;0.40;;;;;;;16.86;62.46;101744.78;6400591;27;20042;-77
2022/06/13 12:18:24;;;;;;;0.45;0.20;;;;;;;16.84;63.01;101744.84;6399982;27;20058;-74
2022/06/13 12:21:32;;;;;;;2.15;0.50;;;;;;;16.94;61.40;101742.47;6383980;27;20051;-75
2022/06/13 12:24:49;;;;;;;1.10;0.30;;;;;;;17.56;63.71;101734.84;6372350;27;20043;-75
2022/06/13 12:27:59;;;;;;;0.70;0.38;;;;;;;18.65;61.23;101741.50;6369151;27;20046;-74
2022/06/13 12:31:06;;;;;;;2.00;0.25;;;;;;;18.93;55.43;101739.53;6370099;27;20070;-76
2022/06/13 12:34:23;;;;;;;0.47;0.20;;;;;;;18.01;52.39;101746.00;6374333;27;20054;-73
2022/06/13 12:37:35;;;;;;;0.50;0.30;;;;;;;18.45;52.27;101752.72;6374396;27;20494;-73
2022/06/13 12:40:46;;;;;;;0.73;0.30;;;;;;;19.15;51.40;101754.81;6373568;27;20709;-73
2022/06/13 12:44:08;;;;;;;0.52;0.20;;;;;;;19.62;47.36;101745.13;6373523;27;20054;-75
2022/06/13 12:47:43;;;;;;;1.10;0.43;;;;;;;19.73;47.92;101748.69;6374195;27;20047;-75
2022/06/13 12:50:58;;;;;;;0.65;0.20;;;;;;;19.60;48.81;101747.03;6376675;27;20502;-77
2022/06/13 12:54:30;;;;;;;1.67;0.75;;;;;;;18.91;51.29;101760.97;6352932;28;20052;-74
2022/06/13 12:57:49;;;;;;;0.20;0.20;;;;;;;18.23;57.76;101794.13;6349014;28;20044;-77
2022/06/13 13:00:57;;;;;;;0.30;0.20;;;;;;;17.56;60.13;101765.91;6347788;28;20048;-74
2022/06/13 13:04:19;;;;;;;1.45;0.20;;;;;;;17.09;60.54;101791.97;6347477;28;20044;-74
2022/06/13 13:07:28;;;;;;;1.02;0.30;;;;;;;16.42;62.64;101788.19;6348575;28;20052;-77
2022/06/13 13:10:38;;;;;;;0.35;0.20;;;;;;;16.23;64.61;101786.66;6347198;28;20425;-73
2022/06/13 13:13:49;;;;;;;0.30;0.30;;;;;;;16.00;67.39;101775.72;6347770;28;20483;-73
2022/06/13 13:16:59;;;;;;;0.40;0.40;;;;;;;15.88;66.67;101764.88;6347421;28;20055;-73
2022/06/13 13:20:07;;;;;;;0.20;0.20;;;;;;;16.08;67.08;101771.69;6349838;27;20059;-73
2022/06/13 13:23:17;;;;;;;0.80;0.40;;;;;;;16.30;65.64;101773.84;6347794;28;20055;-73
2022/06/13 13:26:29;;;;;;;0.20;0.20;;;;;;;16.63;64.87;101778.91;6346982;28;20044;-73
2022/06/13 13:29:43;;;;;;;0.55;0.20;;;;;;;16.91;60.96;101770.09;6347518;28;20055;-72
2022/06/13 13:33:12;;;;;;;0.20;0.20;;;;;;;17.21;60.47;101775.25;6346625;28;20514;-76
2022/06/13 13:36:22;;;;;;;0.20;0.20;;;;;;;17.61;59.79;101769.94;6347114;28;20050;-77
2022/06/13 13:39:31;;;;;;;0.80;0.32;;;;;;;18.16;58.74;101768.88;6347080;28;20051;-77
2022/06/13 13:42:40;;;;;;;5.95;0.32;;;;;;;18.22;57.92;101763.16;6348063;28;20046;-76
2022/06/13 13:45:48;;;;;;;1.00;0.13;;;;;;;18.88;55.45;101784.31;6346968;28;20070;-78
2022/06/13 13:48:54;;;;;;;0.45;0.30;;;;;;;19.18;55.50;101766.09;6347118;28;20109;-76
2022/06/13 13:52:02;;;;;;;2.88;0.30;;;;;;;19.70;55.33;101772.06;6364102;27;20055;-76
2022/06/13 13:55:08;;;;;;;0.22;0.22;;;;;;;19.61;52.44;101775.41;6373292;27;20084;-78
2022/06/13 13:58:16;;;;;;;2.05;0.30;;;;;;;18.90;54.30;101764.59;6372274;27;20046;-76
2022/06/13 14:01:33;;;;;;;1.50;0.30;;;;;;;18.29;57.39;101774.22;6372079;27;20058;-76
2022/06/13 14:04:47;;;;;;;0.47;0.30;;;;;;;18.05;60.30;101778.59;6371721;27;20047;-79
2022/06/13 14:08:06;;;;;;;2.08;0.22;;;;;;;17.84;60.96;101780.88;6372918;27;20043;-77
2022/06/13 14:11:11;;;;;;;2.15;0.30;;;;;;;17.77;63.38;101775.13;6372049;27;20509;-76
2022/06/13 14:14:12;;;;;;;4.47;0.60;;;;;;;17.71;60.55;101780.81;6371921;28;20043;-76
2022/06/13 14:17:17;;;;;;;3.78;0.30;;;;;;;17.77;58.38;101783.13;6371993;28;20432;-75
2022/06/13 14:20:25;;;;;;;1.33;0.22;;;;;;;18.08;55.07;101789.03;6371563;27;20456;-76
2022/06/13 14:23:35;;;;;;;1.50;0.52;;;;;;;17.89;55.43;101782.28;6396801;27;20103;-76
2022/06/13 14:26:58;;;;;;;0.55;0.30;;;;;;;17.70;56.30;101790.59;6397981;27;20050;-76
2022/06/13 14:37:50;;;;;;;0.50;0.45;;;;;;;17.33;59.18;101801.94;6357420;27;20050;-75
2022/06/13 14:41:00;;;;;;;0.40;0.40;;;;;;;17.47;62.11;101793.94;6396839;27;20516;-76
2022/06/13 14:44:08;;;;;;;1.13;0.38;;;;;;;17.83;58.82;101795.13;6398847;27;20061;-76
2022/06/13 14:47:19;;;;;;;3.53;0.40;;;;;;;18.02;58.26;101792.09;6402915;27;20050;-75
2022/06/13 14:50:43;;;;;;;0.57;0.40;;;;;;;18.22;60.00;101800.41;6398214;27;20054;-76
2022/06/13 14:53:46;;;;;;;1.55;0.50;;;;;;;18.16;56.04;101786.66;6376288;27;20046;-75
2022/06/13 14:56:47;;;;;;;0.65;0.40;;;;;;;18.25;57.29;101796.69;6376326;27;20503;-75